Hauptseite
METAR-TAF:

METAR-TAF

Flughäfen :

Flughafen Ostende-Brügge

Ostende, Belgien

Breite: 51-12N, Länge: 002-52E, Höhe: 4 m

Beobachtung

Neuester Wetterbericht von vor 15 Minuten, um 23:50 UTC
Wind 7 kt aus Südost
Temperatur 13°C
Luftfeuchtigkeit 94%
Luftdruck 1006 hPa
Sichtweite: 4800 m
feuchter Dunst

METAR: EBOS 232350Z 14007KT 4800 BR NSC 13/12 Q1006 TEMPO 2500 BR

Zeit: 02:05 (00:05 UTC)

Prognose

Neuester Wetterbericht von vor 55 Minuten, um 23:10 UTC
Gültige Prognose vom 24 um 00 UTC bis 25 um 06 UTC
Wind 6 kt aus Süd
Sichtweite: 3000 m
feuchter Dunst
Wahrscheinlichkeit 30% :
Zeitweise
vom 24 um 00 UTC bis 24 um 06 UTC
Sichtweite: 6000 m
Übergehend zu
vom 24 um 06 UTC bis 24 um 08 UTC
Sichtweite: 9000 m
Übergehend zu
vom 24 um 16 UTC bis 24 um 18 UTC
Wind 11 kt aus West

TAF: EBOS 232310Z 2400/2506 18006KT 3000 BR NSC PROB30 TEMPO 2400/2406 6000 NSW BECMG 2406/2408 9000 NSW BECMG 2416/2418 26011KT

Wetterbeobachtungen und Prognosen von mehr als 4000 Flughäfen (METAR und TAF Bericht).

Die verfügbaren Stationen werden durch gelbe und rote Markierungen auf der Karte dargestellt.

Führen Sie die Maus auf sie, um den Namen der Station zu sehen.

Darauf klicken, um die Beobachtung von Wetterbeobachtungen und Prognosen zu sehen.

Um die Karte zu ändern : klicken Sie auf den grünen Tasten mit einem schwarzen Kreuz Zum Vergrößern, auf den grünen Button mit einem Gedankenstrich zu verkleinern, oder auf die grünen Pfeile für benachbarte Karten.


METAR-TAF: